sensor_id;sensor_type;location;lat;lon;timestamp;pressure;altitude;pressure_sealevel;temperature;humidity
68137;BME280;54939;50.826;9.030;2023-04-08T00:00:20;99056.47;;;11.37;58.71
68137;BME280;54939;50.826;9.030;2023-04-08T00:00:51;99059.28;;;11.36;58.70
68137;BME280;54939;50.826;9.030;2023-04-08T00:01:21;99065.47;;;11.36;58.63
68137;BME280;54939;50.826;9.030;2023-04-08T00:01:51;99064.50;;;11.37;58.69
68137;BME280;54939;50.826;9.030;2023-04-08T00:02:21;99063.66;;;11.37;58.80
68137;BME280;54939;50.826;9.030;2023-04-08T00:02:52;99060.97;;;11.37;58.74
68137;BME280;54939;50.826;9.030;2023-04-08T00:03:22;99065.47;;;11.36;58.81
68137;BME280;54939;50.826;9.030;2023-04-08T00:03:52;99060.97;;;11.37;58.81
68137;BME280;54939;50.826;9.030;2023-04-08T00:04:22;99062.81;;;11.36;58.69
68137;BME280;54939;50.826;9.030;2023-04-08T00:04:52;99059.28;;;11.36;58.69
68137;BME280;54939;50.826;9.030;2023-04-08T00:05:22;99053.09;;;11.35;58.47
68137;BME280;54939;50.826;9.030;2023-04-08T00:05:53;99054.78;;;11.36;58.69
68137;BME280;54939;50.826;9.030;2023-04-08T00:06:23;99053.94;;;11.36;58.68
68137;BME280;54939;50.826;9.030;2023-04-08T00:06:53;99052.13;;;11.36;58.54
68137;BME280;54939;50.826;9.030;2023-04-08T00:07:23;99057.47;;;11.36;58.83
68137;BME280;54939;50.826;9.030;2023-04-08T00:07:53;99056.63;;;11.36;58.71
68137;BME280;54939;50.826;9.030;2023-04-08T00:08:23;99064.63;;;11.36;58.62
68137;BME280;54939;50.826;9.030;2023-04-08T00:08:54;99059.28;;;11.36;58.75
68137;BME280;54939;50.826;9.030;2023-04-08T00:09:24;99062.94;;;11.35;58.55
68137;BME280;54939;50.826;9.030;2023-04-08T00:09:54;99060.28;;;11.35;58.69
68137;BME280;54939;50.826;9.030;2023-04-08T00:10:25;99056.75;;;11.34;58.73
68137;BME280;54939;50.826;9.030;2023-04-08T00:10:55;99069.16;;;11.35;58.86
68137;BME280;54939;50.826;9.030;2023-04-08T00:11:26;99056.75;;;11.34;58.96
68137;BME280;54939;50.826;9.030;2023-04-08T00:11:56;99055.78;;;11.35;58.75
68137;BME280;54939;50.826;9.030;2023-04-08T00:12:26;99062.94;;;11.35;58.80
68137;BME280;54939;50.826;9.030;2023-04-08T00:12:56;99059.44;;;11.34;58.81
68137;BME280;54939;50.826;9.030;2023-04-08T00:13:26;99063.78;;;11.35;58.51
68137;BME280;54939;50.826;9.030;2023-04-08T00:13:57;99058.63;;;11.34;58.44
68137;BME280;54939;50.826;9.030;2023-04-08T00:14:27;99059.44;;;11.34;58.51
68137;BME280;54939;50.826;9.030;2023-04-08T00:14:57;99060.47;;;11.33;58.53
68137;BME280;54939;50.826;9.030;2023-04-08T00:15:27;99057.78;;;11.33;58.90
68137;BME280;54939;50.826;9.030;2023-04-08T00:15:57;99061.28;;;11.34;58.85
68137;BME280;54939;50.826;9.030;2023-04-08T00:16:28;99055.94;;;11.34;58.70
68137;BME280;54939;50.826;9.030;2023-04-08T00:16:58;99060.28;;;11.35;58.54
68137;BME280;54939;50.826;9.030;2023-04-08T00:17:28;99059.44;;;11.34;58.71
68137;BME280;54939;50.826;9.030;2023-04-08T00:17:58;99060.47;;;11.33;58.56
68137;BME280;54939;50.826;9.030;2023-04-08T00:18:29;99059.44;;;11.34;58.83
68137;BME280;54939;50.826;9.030;2023-04-08T00:18:59;99058.63;;;11.34;58.84
68137;BME280;54939;50.826;9.030;2023-04-08T00:19:30;99055.94;;;11.34;58.49
68137;BME280;54939;50.826;9.030;2023-04-08T00:20:00;99055.94;;;11.34;58.39
68137;BME280;54939;50.826;9.030;2023-04-08T00:20:30;99049.75;;;11.33;58.44
68137;BME280;54939;50.826;9.030;2023-04-08T00:21:00;99050.59;;;11.34;58.52
68137;BME280;54939;50.826;9.030;2023-04-08T00:21:31;99060.28;;;11.35;58.43
68137;BME280;54939;50.826;9.030;2023-04-08T00:22:01;99057.78;;;11.33;58.47
68137;BME280;54939;50.826;9.030;2023-04-08T00:22:31;99060.47;;;11.33;58.62
68137;BME280;54939;50.826;9.030;2023-04-08T00:23:01;99061.28;;;11.34;58.74
68137;BME280;54939;50.826;9.030;2023-04-08T00:23:31;99066.66;;;11.34;58.69
68137;BME280;54939;50.826;9.030;2023-04-08T00:24:01;99060.47;;;11.33;58.63
68137;BME280;54939;50.826;9.030;2023-04-08T00:24:33;99057.59;;;11.35;58.69
68137;BME280;54939;50.826;9.030;2023-04-08T00:25:03;99059.63;;;11.33;58.80
68137;BME280;54939;50.826;9.030;2023-04-08T00:25:35;99061.28;;;11.34;58.37
68137;BME280;54939;50.826;9.030;2023-04-08T00:26:05;99055.09;;;11.33;58.74
68137;BME280;54939;50.826;9.030;2023-04-08T00:26:36;99062.09;;;11.34;58.74
68137;BME280;54939;50.826;9.030;2023-04-08T00:27:06;99059.44;;;11.34;58.97
68137;BME280;54939;50.826;9.030;2023-04-08T00:27:36;99057.78;;;11.33;58.66
68137;BME280;54939;50.826;9.030;2023-04-08T00:28:06;99056.94;;;11.33;58.46
68137;BME280;54939;50.826;9.030;2023-04-08T00:28:38;99057.78;;;11.33;59.01
68137;BME280;54939;50.826;9.030;2023-04-08T00:29:08;99060.59;;;11.32;59.04
68137;BME280;54939;50.826;9.030;2023-04-08T00:29:38;99059.63;;;11.33;58.71
68137;BME280;54939;50.826;9.030;2023-04-08T00:30:08;99056.09;;;11.32;58.74
68137;BME280;54939;50.826;9.030;2023-04-08T00:30:39;99056.09;;;11.32;58.66
68137;BME280;54939;50.826;9.030;2023-04-08T00:31:09;99061.44;;;11.32;58.75
68137;BME280;54939;50.826;9.030;2023-04-08T00:31:39;99060.59;;;11.32;58.65
68137;BME280;54939;50.826;9.030;2023-04-08T00:32:10;99064.13;;;11.32;58.72
68137;BME280;54939;50.826;9.030;2023-04-08T00:32:40;99067.63;;;11.33;58.75
68137;BME280;54939;50.826;9.030;2023-04-08T00:33:11;99064.97;;;11.33;58.74
68137;BME280;54939;50.826;9.030;2023-04-08T00:33:41;99060.47;;;11.33;58.44
68137;BME280;54939;50.826;9.030;2023-04-08T00:34:11;99069.31;;;11.34;58.65
68137;BME280;54939;50.826;9.030;2023-04-08T00:34:41;99056.94;;;11.33;58.55
68137;BME280;54939;50.826;9.030;2023-04-08T00:35:12;99065.81;;;11.33;58.92
68137;BME280;54939;50.826;9.030;2023-04-08T00:35:42;99063.13;;;11.33;58.80
68137;BME280;54939;50.826;9.030;2023-04-08T00:36:12;99065.81;;;11.33;58.46
68137;BME280;54939;50.826;9.030;2023-04-08T00:36:43;99062.28;;;11.33;58.48
68137;BME280;54939;50.826;9.030;2023-04-08T00:37:13;99068.47;;;11.33;58.55
68137;BME280;54939;50.826;9.030;2023-04-08T00:37:43;99070.31;;;11.33;58.71
68137;BME280;54939;50.826;9.030;2023-04-08T00:38:14;99065.94;;;11.32;58.67
68137;BME280;54939;50.826;9.030;2023-04-08T00:38:45;99067.78;;;11.31;58.54
68137;BME280;54939;50.826;9.030;2023-04-08T00:39:15;99071.16;;;11.33;58.40
68137;BME280;54939;50.826;9.030;2023-04-08T00:39:45;99066.78;;;11.32;58.46
68137;BME280;54939;50.826;9.030;2023-04-08T00:40:15;99065.81;;;11.33;58.67
68137;BME280;54939;50.826;9.030;2023-04-08T00:40:46;99061.44;;;11.32;58.56
68137;BME280;54939;50.826;9.030;2023-04-08T00:41:16;99069.47;;;11.32;58.53
68137;BME280;54939;50.826;9.030;2023-04-08T00:41:46;99065.94;;;11.32;58.40
68137;BME280;54939;50.826;9.030;2023-04-08T00:42:16;99068.47;;;11.33;58.41
68137;BME280;54939;50.826;9.030;2023-04-08T00:42:46;99070.31;;;11.33;58.55
68137;BME280;54939;50.826;9.030;2023-04-08T00:43:17;99072.97;;;11.33;58.56
68137;BME280;54939;50.826;9.030;2023-04-08T00:43:50;99062.44;;;11.31;58.49
68137;BME280;54939;50.826;9.030;2023-04-08T00:44:20;99072.97;;;11.33;58.16
68137;BME280;54939;50.826;9.030;2023-04-08T00:44:51;99067.78;;;11.31;58.45
68137;BME280;54939;50.826;9.030;2023-04-08T00:45:21;99068.63;;;11.32;58.55
68137;BME280;54939;50.826;9.030;2023-04-08T00:45:51;99069.47;;;11.32;58.50
68137;BME280;54939;50.826;9.030;2023-04-08T00:46:21;99075.78;;;11.31;58.36
68137;BME280;54939;50.826;9.030;2023-04-08T00:46:52;99079.31;;;11.32;58.70
68137;BME280;54939;50.826;9.030;2023-04-08T00:47:22;99078.47;;;11.31;58.51
68137;BME280;54939;50.826;9.030;2023-04-08T00:47:52;99071.44;;;11.30;58.76
68137;BME280;54939;50.826;9.030;2023-04-08T00:48:22;99074.09;;;11.30;58.50
68137;BME280;54939;50.826;9.030;2023-04-08T00:48:53;99073.97;;;11.32;58.50
68137;BME280;54939;50.826;9.030;2023-04-08T00:49:23;99076.63;;;11.32;58.53
68137;BME280;54939;50.826;9.030;2023-04-08T00:49:53;99071.28;;;11.32;58.42
68137;BME280;54939;50.826;9.030;2023-04-08T00:50:24;99073.13;;;11.31;58.49
68137;BME280;54939;50.826;9.030;2023-04-08T00:50:54;99073.13;;;11.31;58.76
68137;BME280;54939;50.826;9.030;2023-04-08T00:51:24;99070.59;;;11.30;58.41
68137;BME280;54939;50.826;9.030;2023-04-08T00:51:55;99070.59;;;11.30;58.87
68137;BME280;54939;50.826;9.030;2023-04-08T00:52:25;99068.75;;;11.30;58.59
68137;BME280;54939;50.826;9.030;2023-04-08T00:52:55;99069.75;;;11.29;58.75
68137;BME280;54939;50.826;9.030;2023-04-08T00:53:25;99074.09;;;11.30;58.46
68137;BME280;54939;50.826;9.030;2023-04-08T00:53:56;99070.59;;;11.30;58.40
68137;BME280;54939;50.826;9.030;2023-04-08T00:54:26;99066.22;;;11.29;58.42
68137;BME280;54939;50.826;9.030;2023-04-08T00:54:56;99073.25;;;11.30;58.58
68137;BME280;54939;50.826;9.030;2023-04-08T00:55:26;99067.91;;;11.30;58.48
68137;BME280;54939;50.826;9.030;2023-04-08T00:55:56;99067.06;;;11.29;58.38
68137;BME280;54939;50.826;9.030;2023-04-08T00:56:29;99069.75;;;11.29;58.43
68137;BME280;54939;50.826;9.030;2023-04-08T00:57:00;99071.44;;;11.30;58.59
68137;BME280;54939;50.826;9.030;2023-04-08T00:57:30;99074.09;;;11.30;58.34
68137;BME280;54939;50.826;9.030;2023-04-08T00:58:00;99077.75;;;11.29;58.61
68137;BME280;54939;50.826;9.030;2023-04-08T00:58:31;99077.75;;;11.29;58.56
68137;BME280;54939;50.826;9.030;2023-04-08T00:59:01;99082.97;;;11.31;58.56
68137;BME280;54939;50.826;9.030;2023-04-08T00:59:31;99078.59;;;11.30;58.56
68137;BME280;54939;50.826;9.030;2023-04-08T01:00:03;99077.63;;;11.31;58.53
68137;BME280;54939;50.826;9.030;2023-04-08T01:00:34;99069.59;;;11.31;58.21
68137;BME280;54939;50.826;9.030;2023-04-08T01:01:07;99078.47;;;11.31;58.39
68137;BME280;54939;50.826;9.030;2023-04-08T01:02:00;99074.09;;;11.30;58.39
68137;BME280;54939;50.826;9.030;2023-04-08T01:02:38;99073.25;;;11.30;58.50
68137;BME280;54939;50.826;9.030;2023-04-08T01:04:43;99075.09;;;11.29;58.31
68137;BME280;54939;50.826;9.030;2023-04-08T01:04:56;99077.91;;;11.28;58.39
68137;BME280;54939;50.826;9.030;2023-04-08T01:06:00;99076.91;;;11.29;58.40
68137;BME280;54939;50.826;9.030;2023-04-08T01:06:57;99075.09;;;11.29;58.46
68137;BME280;54939;50.826;9.030;2023-04-08T01:07:26;99079.59;;;11.29;58.38
68137;BME280;54939;50.826;9.030;2023-04-08T01:07:57;99079.59;;;11.29;58.59
68137;BME280;54939;50.826;9.030;2023-04-08T01:08:28;99081.28;;;11.30;58.18
68137;BME280;54939;50.826;9.030;2023-04-08T01:09:00;99076.91;;;11.29;58.52
68137;BME280;54939;50.826;9.030;2023-04-08T01:09:34;99085.78;;;11.29;58.21
68137;BME280;54939;50.826;9.030;2023-04-08T01:10:11;99077.91;;;11.28;58.40
68137;BME280;54939;50.826;9.030;2023-04-08T01:10:42;99078.75;;;11.28;58.38
68137;BME280;54939;50.826;9.030;2023-04-08T01:11:14;99083.25;;;11.28;58.30
68137;BME280;54939;50.826;9.030;2023-04-08T01:11:45;99082.41;;;11.27;58.29
68137;BME280;54939;50.826;9.030;2023-04-08T01:12:23;99083.25;;;11.28;58.43
68137;BME280;54939;50.826;9.030;2023-04-08T01:12:56;99083.25;;;11.28;58.29
68137;BME280;54939;50.826;9.030;2023-04-08T01:13:29;99083.25;;;11.28;58.47
68137;BME280;54939;50.826;9.030;2023-04-08T01:14:00;99078.75;;;11.28;58.29
68137;BME280;54939;50.826;9.030;2023-04-08T01:14:37;99078.75;;;11.28;58.38
68137;BME280;54939;50.826;9.030;2023-04-08T01:15:08;99075.22;;;11.28;58.37
68137;BME280;54939;50.826;9.030;2023-04-08T01:15:40;99077.06;;;11.27;58.51
68137;BME280;54939;50.826;9.030;2023-04-08T01:16:13;99071.72;;;11.27;58.54
68137;BME280;54939;50.826;9.030;2023-04-08T01:16:44;99074.38;;;11.27;58.45
68137;BME280;54939;50.826;9.030;2023-04-08T01:17:15;99083.25;;;11.28;58.35
68137;BME280;54939;50.826;9.030;2023-04-08T01:17:47;99077.91;;;11.28;58.31
68137;BME280;54939;50.826;9.030;2023-04-08T01:18:17;99077.91;;;11.28;58.17
68137;BME280;54939;50.826;9.030;2023-04-08T01:18:48;99078.91;;;11.27;58.29
68137;BME280;54939;50.826;9.030;2023-04-08T01:19:29;99080.56;;;11.28;58.04
68137;BME280;54939;50.826;9.030;2023-04-08T01:20:01;99077.91;;;11.28;58.13
68137;BME280;54939;50.826;9.030;2023-04-08T01:20:32;99081.59;;;11.27;58.18
68137;BME280;54939;50.826;9.030;2023-04-08T01:21:03;99083.25;;;11.28;58.30
68137;BME280;54939;50.826;9.030;2023-04-08T01:21:36;99077.06;;;11.27;58.25
68137;BME280;54939;50.826;9.030;2023-04-08T01:22:28;99083.25;;;11.28;58.42
68137;BME280;54939;50.826;9.030;2023-04-08T01:24:35;99083.25;;;11.28;58.18
68137;BME280;54939;50.826;9.030;2023-04-08T01:25:19;99082.41;;;11.27;58.45
68137;BME280;54939;50.826;9.030;2023-04-08T01:25:51;99086.94;;;11.27;58.10
68137;BME280;54939;50.826;9.030;2023-04-08T01:26:23;99082.41;;;11.27;58.26
68137;BME280;54939;50.826;9.030;2023-04-08T01:26:54;99079.72;;;11.27;58.59
68137;BME280;54939;50.826;9.030;2023-04-08T01:27:26;99080.75;;;11.26;58.46
68137;BME280;54939;50.826;9.030;2023-04-08T01:27:58;99078.91;;;11.27;58.17
68137;BME280;54939;50.826;9.030;2023-04-08T01:28:29;99077.06;;;11.27;58.18
68137;BME280;54939;50.826;9.030;2023-04-08T01:29:00;99073.56;;;11.27;58.43
68137;BME280;54939;50.826;9.030;2023-04-08T01:29:32;99082.41;;;11.27;58.27
68137;BME280;54939;50.826;9.030;2023-04-08T01:30:03;99080.75;;;11.26;58.25
68137;BME280;54939;50.826;9.030;2023-04-08T01:30:37;99074.38;;;11.27;58.30
68137;BME280;54939;50.826;9.030;2023-04-08T01:31:07;99081.75;;;11.25;58.33
68137;BME280;54939;50.826;9.030;2023-04-08T01:31:38;99078.06;;;11.26;58.29
68137;BME280;54939;50.826;9.030;2023-04-08T01:32:10;99079.06;;;11.25;58.29
68137;BME280;54939;50.826;9.030;2023-04-08T01:32:41;99074.56;;;11.26;58.15
68137;BME280;54939;50.826;9.030;2023-04-08T01:33:13;99074.56;;;11.26;58.39
68137;BME280;54939;50.826;9.030;2023-04-08T01:33:44;99085.25;;;11.26;58.16
68137;BME280;54939;50.826;9.030;2023-04-08T01:34:15;99081.75;;;11.25;58.21
68137;BME280;54939;50.826;9.030;2023-04-08T01:34:47;99085.25;;;11.26;58.23
68137;BME280;54939;50.826;9.030;2023-04-08T01:35:18;99084.41;;;11.25;58.51
68137;BME280;54939;50.826;9.030;2023-04-08T01:35:48;99083.56;;;11.25;58.19
68137;BME280;54939;50.826;9.030;2023-04-08T01:36:18;99083.41;;;11.26;58.25
68137;BME280;54939;50.826;9.030;2023-04-08T01:36:49;99081.75;;;11.25;58.18
68137;BME280;54939;50.826;9.030;2023-04-08T01:37:20;99084.41;;;11.25;58.32
68137;BME280;54939;50.826;9.030;2023-04-08T01:37:51;99083.41;;;11.26;58.12
68137;BME280;54939;50.826;9.030;2023-04-08T01:38:23;99089.75;;;11.25;58.22
68137;BME280;54939;50.826;9.030;2023-04-08T01:38:55;99083.41;;;11.26;58.34
68137;BME280;54939;50.826;9.030;2023-04-08T01:39:25;99082.72;;;11.24;58.21
68137;BME280;54939;50.826;9.030;2023-04-08T01:39:56;99087.94;;;11.26;58.33
68137;BME280;54939;50.826;9.030;2023-04-08T01:40:27;99092.44;;;11.25;58.39
68137;BME280;54939;50.826;9.030;2023-04-08T01:40:58;99088.91;;;11.25;58.08
68137;BME280;54939;50.826;9.030;2023-04-08T01:41:28;99089.75;;;11.25;58.35
68137;BME280;54939;50.826;9.030;2023-04-08T01:41:59;99088.91;;;11.25;58.32
68137;BME280;54939;50.826;9.030;2023-04-08T01:42:31;99075.69;;;11.23;58.23
68137;BME280;54939;50.826;9.030;2023-04-08T01:43:03;99087.09;;;11.25;58.52
68137;BME280;54939;50.826;9.030;2023-04-08T01:43:33;99087.22;;;11.24;58.30
68137;BME280;54939;50.826;9.030;2023-04-08T01:44:04;99095.09;;;11.25;58.43
68137;BME280;54939;50.826;9.030;2023-04-08T01:44:34;99079.06;;;11.25;58.41
68137;BME280;54939;50.826;9.030;2023-04-08T01:45:05;99090.59;;;11.26;58.50
68137;BME280;54939;50.826;9.030;2023-04-08T01:45:36;99081.75;;;11.25;58.40
68137;BME280;54939;50.826;9.030;2023-04-08T01:46:06;99086.09;;;11.26;58.39
68137;BME280;54939;50.826;9.030;2023-04-08T01:46:37;99084.41;;;11.25;58.39
68137;BME280;54939;50.826;9.030;2023-04-08T01:47:09;99084.41;;;11.25;58.31
68137;BME280;54939;50.826;9.030;2023-04-08T01:47:39;99087.09;;;11.25;58.55
68137;BME280;54939;50.826;9.030;2023-04-08T01:48:11;99087.09;;;11.25;58.25
68137;BME280;54939;50.826;9.030;2023-04-08T01:48:42;99082.72;;;11.24;58.21
68137;BME280;54939;50.826;9.030;2023-04-08T01:49:12;99081.03;;;11.23;58.33
68137;BME280;54939;50.826;9.030;2023-04-08T01:49:43;99087.94;;;11.26;58.18
68137;BME280;54939;50.826;9.030;2023-04-08T01:50:14;99080.88;;;11.25;58.22
68137;BME280;54939;50.826;9.030;2023-04-08T01:50:45;99092.44;;;11.25;58.28
68137;BME280;54939;50.826;9.030;2023-04-08T01:51:15;99093.41;;;11.24;58.26
68137;BME280;54939;50.826;9.030;2023-04-08T01:51:46;99083.72;;;11.23;58.19
68137;BME280;54939;50.826;9.030;2023-04-08T01:52:17;99093.41;;;11.24;58.19
68137;BME280;54939;50.826;9.030;2023-04-08T01:52:48;99091.72;;;11.23;57.95
68137;BME280;54939;50.826;9.030;2023-04-08T01:53:21;99087.22;;;11.24;58.29
68137;BME280;54939;50.826;9.030;2023-04-08T01:53:52;99087.22;;;11.24;58.23
68137;BME280;54939;50.826;9.030;2023-04-08T01:54:22;99088.22;;;11.23;58.34
68137;BME280;54939;50.826;9.030;2023-04-08T01:54:52;99089.06;;;11.23;58.65
68137;BME280;54939;50.826;9.030;2023-04-08T01:55:22;99089.06;;;11.23;58.19
68137;BME280;54939;50.826;9.030;2023-04-08T01:55:57;99085.53;;;11.23;58.28
68137;BME280;54939;50.826;9.030;2023-04-08T01:56:30;99084.69;;;11.22;58.45
68137;BME280;54939;50.826;9.030;2023-04-08T01:57:03;99087.38;;;11.22;58.52
68137;BME280;54939;50.826;9.030;2023-04-08T01:57:36;99095.38;;;11.22;58.52
68137;BME280;54939;50.826;9.030;2023-04-08T01:58:06;99090.88;;;11.23;58.52
68137;BME280;54939;50.826;9.030;2023-04-08T01:58:47;99090.88;;;11.23;58.49
68137;BME280;54939;50.826;9.030;2023-04-08T01:59:19;99086.53;;;11.22;58.33
68137;BME280;54939;50.826;9.030;2023-04-08T01:59:51;99093.69;;;11.21;58.36
68137;BME280;54939;50.826;9.030;2023-04-08T02:00:23;99084.84;;;11.21;58.28
68137;BME280;54939;50.826;9.030;2023-04-08T02:00:54;99090.03;;;11.22;58.38
68137;BME280;54939;50.826;9.030;2023-04-08T02:01:25;99096.38;;;11.21;58.47
68137;BME280;54939;50.826;9.030;2023-04-08T02:01:56;99095.53;;;11.21;58.22
68137;BME280;54939;50.826;9.030;2023-04-08T02:02:27;99085.69;;;11.21;58.32
68137;BME280;54939;50.826;9.030;2023-04-08T02:02:58;99090.03;;;11.22;58.49
68137;BME280;54939;50.826;9.030;2023-04-08T02:03:28;99094.53;;;11.22;58.30
68137;BME280;54939;50.826;9.030;2023-04-08T02:03:59;99096.38;;;11.21;58.40
68137;BME280;54939;50.826;9.030;2023-04-08T02:04:30;99093.69;;;11.21;58.33
68137;BME280;54939;50.826;9.030;2023-04-08T02:05:02;99091.88;;;11.22;58.33
68137;BME280;54939;50.826;9.030;2023-04-08T02:05:32;99092.00;;;11.20;58.31
68137;BME280;54939;50.826;9.030;2023-04-08T02:06:03;99090.03;;;11.22;58.42
68137;BME280;54939;50.826;9.030;2023-04-08T02:06:34;99083.00;;;11.21;58.20
68137;BME280;54939;50.826;9.030;2023-04-08T02:07:05;99085.69;;;11.21;58.42
68137;BME280;54939;50.826;9.030;2023-04-08T02:07:35;99088.34;;;11.21;58.18
68137;BME280;54939;50.826;9.030;2023-04-08T02:08:06;99095.53;;;11.21;58.29
68137;BME280;54939;50.826;9.030;2023-04-08T02:08:36;99092.00;;;11.20;58.34
68137;BME280;54939;50.826;9.030;2023-04-08T02:09:06;99086.66;;;11.20;58.38
68137;BME280;54939;50.826;9.030;2023-04-08T02:09:37;99091.19;;;11.20;58.45
68137;BME280;54939;50.826;9.030;2023-04-08T02:10:07;99093.88;;;11.20;58.40
68137;BME280;54939;50.826;9.030;2023-04-08T02:10:37;99100.03;;;11.20;58.50
68137;BME280;54939;50.826;9.030;2023-04-08T02:11:08;99091.19;;;11.20;58.35
68137;BME280;54939;50.826;9.030;2023-04-08T02:11:39;99092.84;;;11.21;58.31
68137;BME280;54939;50.826;9.030;2023-04-08T02:12:09;99084.16;;;11.19;58.32
68137;BME280;54939;50.826;9.030;2023-04-08T02:12:39;99095.69;;;11.19;58.71
68137;BME280;54939;50.826;9.030;2023-04-08T02:13:10;99093.03;;;11.19;58.47
68137;BME280;54939;50.826;9.030;2023-04-08T02:13:40;99085.00;;;11.19;58.58
68137;BME280;54939;50.826;9.030;2023-04-08T02:14:10;99093.88;;;11.20;58.27
68137;BME280;54939;50.826;9.030;2023-04-08T02:14:40;99090.50;;;11.18;58.50
68137;BME280;54939;50.826;9.030;2023-04-08T02:15:11;99091.03;;;11.21;58.33
68137;BME280;54939;50.826;9.030;2023-04-08T02:15:41;99095.53;;;11.21;58.30
68137;BME280;54939;50.826;9.030;2023-04-08T02:16:15;99094.69;;;11.20;58.27
68137;BME280;54939;50.826;9.030;2023-04-08T02:16:49;99096.53;;;11.20;58.28
68137;BME280;54939;50.826;9.030;2023-04-08T02:17:35;99093.03;;;11.19;58.27
68137;BME280;54939;50.826;9.030;2023-04-08T02:18:10;99095.69;;;11.19;58.43
68137;BME280;54939;50.826;9.030;2023-04-08T02:18:42;99098.38;;;11.19;58.22
68137;BME280;54939;50.826;9.030;2023-04-08T02:19:14;99087.13;;;11.16;58.24
68137;BME280;54939;50.826;9.030;2023-04-08T02:19:49;99094.84;;;11.19;58.19
68137;BME280;54939;50.826;9.030;2023-04-08T02:21:05;99101.03;;;11.19;58.32
68137;BME280;54939;50.826;9.030;2023-04-08T02:21:14;99095.69;;;11.19;58.36
68137;BME280;54939;50.826;9.030;2023-04-08T02:21:46;99096.69;;;11.18;58.27
68137;BME280;54939;50.826;9.030;2023-04-08T02:23:13;99095.84;;;11.18;58.22
68137;BME280;54939;50.826;9.030;2023-04-08T02:23:45;99094.00;;;11.18;58.19
68137;BME280;54939;50.826;9.030;2023-04-08T02:24:18;99107.22;;;11.20;58.20
68137;BME280;54939;50.826;9.030;2023-04-08T02:24:49;99095.69;;;11.19;58.24
68137;BME280;54939;50.826;9.030;2023-04-08T02:25:21;99082.34;;;11.19;58.12
68137;BME280;54939;50.826;9.030;2023-04-08T02:25:52;99100.19;;;11.19;58.36
68137;BME280;54939;50.826;9.030;2023-04-08T02:26:24;99093.03;;;11.19;58.29
68137;BME280;54939;50.826;9.030;2023-04-08T02:26:55;99091.34;;;11.18;58.21
68137;BME280;54939;50.826;9.030;2023-04-08T02:27:25;99091.34;;;11.18;58.12
68137;BME280;54939;50.826;9.030;2023-04-08T02:27:56;99094.84;;;11.19;58.33
68137;BME280;54939;50.826;9.030;2023-04-08T02:28:28;99094.84;;;11.19;58.16
68137;BME280;54939;50.826;9.030;2023-04-08T02:28:59;99093.03;;;11.19;58.24
68137;BME280;54939;50.826;9.030;2023-04-08T02:29:31;99094.00;;;11.18;58.15
68137;BME280;54939;50.826;9.030;2023-04-08T02:30:03;99094.84;;;11.19;58.18
68137;BME280;54939;50.826;9.030;2023-04-08T02:30:34;99094.00;;;11.18;58.40
68137;BME280;54939;50.826;9.030;2023-04-08T02:31:05;99100.19;;;11.19;58.25
68137;BME280;54939;50.826;9.030;2023-04-08T02:31:37;99097.66;;;11.17;58.21
68137;BME280;54939;50.826;9.030;2023-04-08T02:32:10;99103.84;;;11.18;58.37
68137;BME280;54939;50.826;9.030;2023-04-08T02:32:41;99095.97;;;11.16;58.22
68137;BME280;54939;50.826;9.030;2023-04-08T02:33:12;99091.47;;;11.17;58.22
68137;BME280;54939;50.826;9.030;2023-04-08T02:33:43;99096.81;;;11.17;58.33
68137;BME280;54939;50.826;9.030;2023-04-08T02:34:14;99099.50;;;11.17;58.36
68137;BME280;54939;50.826;9.030;2023-04-08T02:34:46;99096.81;;;11.17;58.41
68137;BME280;54939;50.826;9.030;2023-04-08T02:35:17;99093.31;;;11.16;58.14
68137;BME280;54939;50.826;9.030;2023-04-08T02:35:48;99095.97;;;11.16;58.59
68137;BME280;54939;50.826;9.030;2023-04-08T02:36:19;99092.47;;;11.16;58.25
68137;BME280;54939;50.826;9.030;2023-04-08T02:36:50;99091.47;;;11.17;58.23
68137;BME280;54939;50.826;9.030;2023-04-08T02:37:20;99096.13;;;11.15;58.45
68137;BME280;54939;50.826;9.030;2023-04-08T02:37:51;99093.44;;;11.15;58.33
68137;BME280;54939;50.826;9.030;2023-04-08T02:38:21;99096.13;;;11.15;58.17
68137;BME280;54939;50.826;9.030;2023-04-08T02:38:52;99092.59;;;11.14;58.27
68137;BME280;54939;50.826;9.030;2023-04-08T02:39:29;99098.78;;;11.15;58.19
68137;BME280;54939;50.826;9.030;2023-04-08T02:39:59;99088.09;;;11.15;58.36
68137;BME280;54939;50.826;9.030;2023-04-08T02:40:30;99103.16;;;11.16;58.35
68137;BME280;54939;50.826;9.030;2023-04-08T02:41:01;99096.13;;;11.15;58.40
68137;BME280;54939;50.826;9.030;2023-04-08T02:41:31;99098.66;;;11.16;58.18
68137;BME280;54939;50.826;9.030;2023-04-08T02:42:01;99096.13;;;11.15;58.26
68137;BME280;54939;50.826;9.030;2023-04-08T02:42:32;99092.59;;;11.14;58.23
68137;BME280;54939;50.826;9.030;2023-04-08T02:43:03;99101.47;;;11.15;58.48
68137;BME280;54939;50.826;9.030;2023-04-08T02:43:33;99095.28;;;11.14;58.33
68137;BME280;54939;50.826;9.030;2023-04-08T02:44:03;99104.97;;;11.15;58.21
68137;BME280;54939;50.826;9.030;2023-04-08T02:44:33;99096.13;;;11.15;58.15
68137;BME280;54939;50.826;9.030;2023-04-08T02:45:03;99097.94;;;11.14;58.39
68137;BME280;54939;50.826;9.030;2023-04-08T02:45:37;99092.59;;;11.14;58.26
68137;BME280;54939;50.826;9.030;2023-04-08T02:46:09;99094.28;;;11.15;58.20
68137;BME280;54939;50.826;9.030;2023-04-08T02:46:40;99097.94;;;11.14;58.22
68137;BME280;54939;50.826;9.030;2023-04-08T02:47:10;99094.28;;;11.15;58.16
68137;BME280;54939;50.826;9.030;2023-04-08T02:47:40;99096.97;;;11.15;58.21
68137;BME280;54939;50.826;9.030;2023-04-08T02:48:11;99098.78;;;11.15;58.28
68137;BME280;54939;50.826;9.030;2023-04-08T02:48:41;99098.78;;;11.15;58.17
68137;BME280;54939;50.826;9.030;2023-04-08T02:49:11;99104.97;;;11.15;58.21
68137;BME280;54939;50.826;9.030;2023-04-08T02:49:41;99092.59;;;11.14;58.19
68137;BME280;54939;50.826;9.030;2023-04-08T02:50:11;99098.97;;;11.13;58.13
68137;BME280;54939;50.826;9.030;2023-04-08T02:50:41;99103.28;;;11.14;58.07